KVEL

Vernal Regional Airport

Vernal, Utah, USA
KVEL 171120Z 1712/1812 VRB05KT P6SM FEW110 FM172300 33006KT P6SM FEW250
Issued Valid From Valid To
Aug-17 @ 11:20 UTC
(4 hours ago)
Aug-17 @ 12:00 UTC
(3 hours ago)
Aug-18 @ 12:00 UTC
(in 21 hours)
Aug-17 @ 12:00 to Aug-17 @ 23:00
KVEL 171120Z 1712/1812 VRB05KT P6SM FEW110
Wind Visibility Clouds
Variable at 5 knots Greater than 6 miles
  • Few at 11,000' AGL
From Aug-17 @ 23:00 to Aug-18 @ 12:00
FM172300 33006KT P6SM FEW250
Wind Visibility Clouds
330° at 6 knots Greater than 6 miles
  • Few at 25,000' AGL
KVEL 171120Z 1712/1812 VRB05KT P6SM FEW110 FM172300 33006KT P6SM FEW250
Issued Aug-17 @ 11:20 UTC
(4 hours ago)
Valid From Aug-17 @ 12:00 UTC
(3 hours ago)
Valid To Aug-18 @ 12:00 UTC
(in 21 hours)
Aug-17 @ 12:00 - Aug-17 @ 23:00
Wind Visibility
Variable at 5 knots Greater than 6 miles
Clouds
  • Few at 11,000' AGL
From Aug-17 @ 23:00 - Aug-18 @ 12:00
Wind Visibility
330° at 6 knots Greater than 6 miles
Clouds
  • Few at 25,000' AGL